sensor_id;sensor_type;location;lat;lon;timestamp;pressure;altitude;pressure_sealevel;temperature;humidity
11349;BME280;5729;43.570;27.826;2022-07-01T00:00:20;98945.66;;;23.18;100.00
11349;BME280;5729;43.570;27.826;2022-07-01T00:02:46;98958.72;;;23.14;100.00
11349;BME280;5729;43.570;27.826;2022-07-01T00:05:11;98965.13;;;23.11;100.00
11349;BME280;5729;43.570;27.826;2022-07-01T00:07:37;98968.34;;;22.97;100.00
11349;BME280;5729;43.570;27.826;2022-07-01T00:10:04;98977.81;;;22.84;100.00
11349;BME280;5729;43.570;27.826;2022-07-01T00:12:30;98978.78;;;22.64;100.00
11349;BME280;5729;43.570;27.826;2022-07-01T00:14:55;98969.53;;;22.58;100.00
11349;BME280;5729;43.570;27.826;2022-07-01T00:17:21;98971.66;;;22.67;100.00
11349;BME280;5729;43.570;27.826;2022-07-01T00:19:46;98959.47;;;22.68;100.00
11349;BME280;5729;43.570;27.826;2022-07-01T00:22:13;98965.25;;;22.70;100.00
11349;BME280;5729;43.570;27.826;2022-07-01T00:24:39;98959.00;;;22.69;100.00
11349;BME280;5729;43.570;27.826;2022-07-01T00:27:04;98963.28;;;22.70;100.00
11349;BME280;5729;43.570;27.826;2022-07-01T00:29:30;98952.41;;;22.67;100.00
11349;BME280;5729;43.570;27.826;2022-07-01T00:31:55;98954.94;;;22.74;100.00
11349;BME280;5729;43.570;27.826;2022-07-01T00:34:21;98940.34;;;22.77;100.00
11349;BME280;5729;43.570;27.826;2022-07-01T00:36:46;98942.97;;;22.80;100.00
11349;BME280;5729;43.570;27.826;2022-07-01T00:39:11;98938.56;;;22.83;100.00
11349;BME280;5729;43.570;27.826;2022-07-01T00:41:37;98936.81;;;22.89;100.00
11349;BME280;5729;43.570;27.826;2022-07-01T00:44:03;98927.13;;;22.97;100.00
11349;BME280;5729;43.570;27.826;2022-07-01T00:46:29;98919.75;;;22.94;100.00
11349;BME280;5729;43.570;27.826;2022-07-01T00:48:58;98917.09;;;23.03;100.00
11349;BME280;5729;43.570;27.826;2022-07-01T00:51:24;98923.91;;;23.11;100.00
11349;BME280;5729;43.570;27.826;2022-07-01T00:53:49;98909.75;;;23.00;100.00
11349;BME280;5729;43.570;27.826;2022-07-01T00:56:15;98922.03;;;23.08;100.00
11349;BME280;5729;43.570;27.826;2022-07-01T00:58:41;98908.19;;;23.12;100.00
11349;BME280;5729;43.570;27.826;2022-07-01T01:01:06;98910.16;;;23.11;100.00
11349;BME280;5729;43.570;27.826;2022-07-01T01:03:32;98911.38;;;23.10;100.00
11349;BME280;5729;43.570;27.826;2022-07-01T01:05:57;98908.63;;;23.10;100.00
11349;BME280;5729;43.570;27.826;2022-07-01T01:08:23;98910.28;;;23.08;100.00
11349;BME280;5729;43.570;27.826;2022-07-01T01:10:51;98904.88;;;23.04;100.00
11349;BME280;5729;43.570;27.826;2022-07-01T01:13:17;98901.25;;;23.07;100.00
11349;BME280;5729;43.570;27.826;2022-07-01T01:15:43;98906.09;;;23.03;100.00
11349;BME280;5729;43.570;27.826;2022-07-01T01:18:08;98916.66;;;23.05;100.00
11349;BME280;5729;43.570;27.826;2022-07-01T01:20:35;98916.66;;;23.05;100.00
11349;BME280;5729;43.570;27.826;2022-07-01T01:23:01;98916.66;;;23.05;100.00
11349;BME280;5729;43.570;27.826;2022-07-01T01:25:27;98928.22;;;23.00;100.00
11349;BME280;5729;43.570;27.826;2022-07-01T01:27:52;98912.75;;;22.80;100.00
11349;BME280;5729;43.570;27.826;2022-07-01T01:30:18;98930.75;;;22.81;100.00
11349;BME280;5729;43.570;27.826;2022-07-01T01:32:43;98933.50;;;22.69;100.00
11349;BME280;5729;43.570;27.826;2022-07-01T01:35:09;98925.59;;;22.71;100.00
11349;BME280;5729;43.570;27.826;2022-07-01T01:37:35;98931.75;;;22.75;100.00
11349;BME280;5729;43.570;27.826;2022-07-01T01:40:02;98941.19;;;22.74;100.00
11349;BME280;5729;43.570;27.826;2022-07-01T01:42:27;98923.63;;;22.84;100.00
11349;BME280;5729;43.570;27.826;2022-07-01T01:44:53;98924.72;;;22.74;100.00
11349;BME280;5729;43.570;27.826;2022-07-01T01:47:20;98931.41;;;22.73;100.00
11349;BME280;5729;43.570;27.826;2022-07-01T01:49:45;98926.94;;;22.79;100.00
11349;BME280;5729;43.570;27.826;2022-07-01T01:52:11;98932.31;;;22.83;100.00
11349;BME280;5729;43.570;27.826;2022-07-01T01:54:36;98939.44;;;22.93;100.00
11349;BME280;5729;43.570;27.826;2022-07-01T01:57:03;98934.25;;;22.95;100.00
11349;BME280;5729;43.570;27.826;2022-07-01T01:59:30;98933.72;;;23.00;100.00
11349;BME280;5729;43.570;27.826;2022-07-01T02:01:55;98932.38;;;23.04;100.00
11349;BME280;5729;43.570;27.826;2022-07-01T02:04:21;98926.25;;;23.00;100.00
11349;BME280;5729;43.570;27.826;2022-07-01T02:06:49;98933.28;;;23.01;100.00
11349;BME280;5729;43.570;27.826;2022-07-01T02:09:14;98929.50;;;23.08;100.00
11349;BME280;5729;43.570;27.826;2022-07-01T02:11:40;98930.81;;;23.16;100.00
11349;BME280;5729;43.570;27.826;2022-07-01T02:14:05;98933.00;;;23.21;100.00
11349;BME280;5729;43.570;27.826;2022-07-01T02:16:31;98930.13;;;23.25;100.00
11349;BME280;5729;43.570;27.826;2022-07-01T02:18:57;98930.88;;;23.25;100.00
11349;BME280;5729;43.570;27.826;2022-07-01T02:21:22;98924.81;;;23.30;100.00
11349;BME280;5729;43.570;27.826;2022-07-01T02:23:48;98942.31;;;23.36;100.00
11349;BME280;5729;43.570;27.826;2022-07-01T02:26:13;98940.28;;;23.37;100.00
11349;BME280;5729;43.570;27.826;2022-07-01T02:28:39;98943.03;;;23.37;100.00
11349;BME280;5729;43.570;27.826;2022-07-01T02:31:04;98940.75;;;23.35;100.00
11349;BME280;5729;43.570;27.826;2022-07-01T02:33:30;98945.94;;;23.33;100.00
11349;BME280;5729;43.570;27.826;2022-07-01T02:35:56;98928.44;;;23.27;100.00
11349;BME280;5729;43.570;27.826;2022-07-01T02:38:21;98935.38;;;23.32;100.00
11349;BME280;5729;43.570;27.826;2022-07-01T02:40:47;98936.91;;;23.33;100.00
11349;BME280;5729;43.570;27.826;2022-07-01T02:43:12;98935.72;;;23.34;100.00
11349;BME280;5729;43.570;27.826;2022-07-01T02:45:38;98943.97;;;23.34;100.00
11349;BME280;5729;43.570;27.826;2022-07-01T02:48:05;98937.25;;;23.35;100.00
11349;BME280;5729;43.570;27.826;2022-07-01T02:50:30;98939.22;;;23.34;100.00
11349;BME280;5729;43.570;27.826;2022-07-01T02:52:56;98939.09;;;23.38;100.00
11349;BME280;5729;43.570;27.826;2022-07-01T02:55:21;98945.78;;;23.37;100.00
11349;BME280;5729;43.570;27.826;2022-07-01T02:57:47;98952.84;;;23.38;100.00
11349;BME280;5729;43.570;27.826;2022-07-01T03:00:19;98954.81;;;23.37;100.00
11349;BME280;5729;43.570;27.826;2022-07-01T03:02:45;98949.00;;;23.35;100.00
11349;BME280;5729;43.570;27.826;2022-07-01T03:05:11;98961.09;;;23.38;100.00
11349;BME280;5729;43.570;27.826;2022-07-01T03:07:37;98956.06;;;23.36;100.00
11349;BME280;5729;43.570;27.826;2022-07-01T03:10:04;98957.88;;;23.39;100.00
11349;BME280;5729;43.570;27.826;2022-07-01T03:12:30;98946.44;;;23.41;100.00
11349;BME280;5729;43.570;27.826;2022-07-01T03:15:11;98952.28;;;23.43;100.00
11349;BME280;5729;43.570;27.826;2022-07-01T03:17:39;98956.91;;;23.46;100.00
11349;BME280;5729;43.570;27.826;2022-07-01T03:20:11;98942.81;;;23.44;100.00
11349;BME280;5729;43.570;27.826;2022-07-01T03:22:37;98947.31;;;23.50;100.00
11349;BME280;5729;43.570;27.826;2022-07-01T03:25:03;98960.63;;;23.52;100.00
11349;BME280;5729;43.570;27.826;2022-07-01T03:27:30;98935.78;;;23.43;100.00
11349;BME280;5729;43.570;27.826;2022-07-01T03:29:55;98956.34;;;23.51;100.00
11349;BME280;5729;43.570;27.826;2022-07-01T03:32:21;98962.59;;;23.51;100.00
11349;BME280;5729;43.570;27.826;2022-07-01T03:34:49;98955.44;;;23.54;100.00
11349;BME280;5729;43.570;27.826;2022-07-01T03:37:16;98951.81;;;23.57;100.00
11349;BME280;5729;43.570;27.826;2022-07-01T03:39:43;98952.44;;;23.61;100.00
11349;BME280;5729;43.570;27.826;2022-07-01T03:42:09;98948.16;;;23.60;100.00
11349;BME280;5729;43.570;27.826;2022-07-01T03:44:35;98960.75;;;23.70;100.00
11349;BME280;5729;43.570;27.826;2022-07-01T03:47:02;98967.34;;;23.73;100.00
11349;BME280;5729;43.570;27.826;2022-07-01T03:49:35;98964.47;;;23.76;100.00
11349;BME280;5729;43.570;27.826;2022-07-01T03:52:04;98975.50;;;23.76;100.00
11349;BME280;5729;43.570;27.826;2022-07-01T03:54:31;98970.00;;;23.76;100.00
11349;BME280;5729;43.570;27.826;2022-07-01T03:57:05;98977.34;;;23.79;100.00
11349;BME280;5729;43.570;27.826;2022-07-01T03:59:34;98978.91;;;23.80;100.00
11349;BME280;5729;43.570;27.826;2022-07-01T04:02:01;98975.81;;;23.78;100.00
11349;BME280;5729;43.570;27.826;2022-07-01T04:04:27;98973.31;;;23.71;100.00
11349;BME280;5729;43.570;27.826;2022-07-01T04:06:53;98967.75;;;23.84;100.00
11349;BME280;5729;43.570;27.826;2022-07-01T04:09:20;98975.75;;;23.91;100.00
11349;BME280;5729;43.570;27.826;2022-07-01T04:11:48;98979.91;;;23.96;100.00
11349;BME280;5729;43.570;27.826;2022-07-01T04:14:14;98959.69;;;23.89;100.00
11349;BME280;5729;43.570;27.826;2022-07-01T04:16:40;98976.91;;;24.03;100.00
11349;BME280;5729;43.570;27.826;2022-07-01T04:19:06;98980.59;;;24.09;100.00
11349;BME280;5729;43.570;27.826;2022-07-01T04:21:32;98976.50;;;24.13;100.00
11349;BME280;5729;43.570;27.826;2022-07-01T04:24:16;98972.84;;;24.16;100.00
11349;BME280;5729;43.570;27.826;2022-07-01T04:26:42;98975.47;;;24.20;100.00
11349;BME280;5729;43.570;27.826;2022-07-01T04:29:09;98978.88;;;24.24;100.00
11349;BME280;5729;43.570;27.826;2022-07-01T04:31:35;98988.53;;;24.29;100.00
11349;BME280;5729;43.570;27.826;2022-07-01T04:34:01;98988.72;;;24.34;100.00
11349;BME280;5729;43.570;27.826;2022-07-01T04:36:27;98988.13;;;24.39;100.00
11349;BME280;5729;43.570;27.826;2022-07-01T04:38:52;98990.75;;;24.43;100.00
11349;BME280;5729;43.570;27.826;2022-07-01T04:41:18;98996.13;;;24.46;100.00
11349;BME280;5729;43.570;27.826;2022-07-01T04:44:02;98994.00;;;24.50;100.00
11349;BME280;5729;43.570;27.826;2022-07-01T04:46:27;98988.34;;;24.54;100.00
11349;BME280;5729;43.570;27.826;2022-07-01T04:48:53;98997.59;;;24.60;100.00
11349;BME280;5729;43.570;27.826;2022-07-01T04:51:19;98994.22;;;24.65;100.00
11349;BME280;5729;43.570;27.826;2022-07-01T04:53:45;98993.31;;;24.68;100.00
11349;BME280;5729;43.570;27.826;2022-07-01T04:56:10;98995.47;;;24.73;100.00
11349;BME280;5729;43.570;27.826;2022-07-01T04:58:36;98992.00;;;24.82;100.00
11349;BME280;5729;43.570;27.826;2022-07-01T05:01:01;98995.69;;;24.88;100.00
11349;BME280;5729;43.570;27.826;2022-07-01T05:03:26;98997.22;;;24.89;100.00
11349;BME280;5729;43.570;27.826;2022-07-01T05:05:52;99011.00;;;24.89;100.00
11349;BME280;5729;43.570;27.826;2022-07-01T05:08:17;99010.69;;;24.87;100.00
11349;BME280;5729;43.570;27.826;2022-07-01T05:10:43;99012.06;;;24.82;100.00
11349;BME280;5729;43.570;27.826;2022-07-01T05:13:08;98994.13;;;24.78;100.00
11349;BME280;5729;43.570;27.826;2022-07-01T05:15:34;99006.38;;;24.86;100.00
11349;BME280;5729;43.570;27.826;2022-07-01T05:17:59;99007.03;;;24.90;100.00
11349;BME280;5729;43.570;27.826;2022-07-01T05:20:44;99001.06;;;24.91;100.00
11349;BME280;5729;43.570;27.826;2022-07-01T05:23:27;99008.47;;;25.04;100.00
11349;BME280;5729;43.570;27.826;2022-07-01T05:25:53;98966.91;;;24.89;100.00
11349;BME280;5729;43.570;27.826;2022-07-01T05:28:18;99013.13;;;25.25;100.00
11349;BME280;5729;43.570;27.826;2022-07-01T05:30:44;98997.78;;;25.33;100.00
11349;BME280;5729;43.570;27.826;2022-07-01T05:33:09;98997.97;;;25.39;100.00
11349;BME280;5729;43.570;27.826;2022-07-01T05:35:36;98984.91;;;25.30;100.00
11349;BME280;5729;43.570;27.826;2022-07-01T05:38:01;98992.59;;;25.44;100.00
11349;BME280;5729;43.570;27.826;2022-07-01T05:40:26;98996.44;;;25.47;100.00
11349;BME280;5729;43.570;27.826;2022-07-01T05:42:52;99001.03;;;25.50;100.00
11349;BME280;5729;43.570;27.826;2022-07-01T05:45:18;99000.72;;;25.48;100.00
11349;BME280;5729;43.570;27.826;2022-07-01T05:47:44;99000.72;;;25.48;100.00
11349;BME280;5729;43.570;27.826;2022-07-01T05:50:10;99001.81;;;25.50;100.00
11349;BME280;5729;43.570;27.826;2022-07-01T05:52:36;99005.63;;;25.53;100.00
11349;BME280;5729;43.570;27.826;2022-07-01T05:55:01;98982.31;;;25.45;100.00
11349;BME280;5729;43.570;27.826;2022-07-01T05:57:27;99005.97;;;25.64;100.00
11349;BME280;5729;43.570;27.826;2022-07-01T05:59:52;99002.47;;;25.73;100.00
11349;BME280;5729;43.570;27.826;2022-07-01T06:02:18;98999.22;;;25.83;100.00
11349;BME280;5729;43.570;27.826;2022-07-01T06:04:43;99004.09;;;25.97;100.00
11349;BME280;5729;43.570;27.826;2022-07-01T06:07:09;99005.78;;;26.13;100.00
11349;BME280;5729;43.570;27.826;2022-07-01T06:09:38;99006.53;;;26.32;100.00
11349;BME280;5729;43.570;27.826;2022-07-01T06:12:04;99006.94;;;26.49;100.00
11349;BME280;5729;43.570;27.826;2022-07-01T06:14:30;99009.53;;;26.61;100.00
11349;BME280;5729;43.570;27.826;2022-07-01T06:16:56;99008.25;;;26.71;100.00
11349;BME280;5729;43.570;27.826;2022-07-01T06:19:21;99009.59;;;26.76;100.00
11349;BME280;5729;43.570;27.826;2022-07-01T06:21:47;99005.47;;;26.71;99.17
11349;BME280;5729;43.570;27.826;2022-07-01T06:24:12;99006.56;;;26.74;100.00
11349;BME280;5729;43.570;27.826;2022-07-01T06:26:38;99005.78;;;26.73;91.61
11349;BME280;5729;43.570;27.826;2022-07-01T06:29:04;99011.31;;;26.73;93.84
11349;BME280;5729;43.570;27.826;2022-07-01T06:31:29;99007.59;;;26.76;89.36
11349;BME280;5729;43.570;27.826;2022-07-01T06:33:55;99009.78;;;26.72;75.38
11349;BME280;5729;43.570;27.826;2022-07-01T06:36:21;99004.56;;;26.74;74.24
11349;BME280;5729;43.570;27.826;2022-07-01T06:38:47;99007.91;;;26.79;76.53
11349;BME280;5729;43.570;27.826;2022-07-01T06:41:12;99006.03;;;26.85;79.13
11349;BME280;5729;43.570;27.826;2022-07-01T06:43:57;99010.00;;;26.93;87.17
11349;BME280;5729;43.570;27.826;2022-07-01T06:46:24;99004.31;;;26.96;90.06
11349;BME280;5729;43.570;27.826;2022-07-01T06:48:50;99010.25;;;27.04;94.81
11349;BME280;5729;43.570;27.826;2022-07-01T06:51:15;98980.19;;;26.97;93.13
11349;BME280;5729;43.570;27.826;2022-07-01T06:53:41;99000.97;;;27.16;96.55
11349;BME280;5729;43.570;27.826;2022-07-01T06:56:07;99004.91;;;27.24;95.20
11349;BME280;5729;43.570;27.826;2022-07-01T06:58:33;99010.09;;;27.31;92.53
11349;BME280;5729;43.570;27.826;2022-07-01T07:00:59;99008.81;;;27.41;97.56
11349;BME280;5729;43.570;27.826;2022-07-01T07:03:24;99007.97;;;27.50;95.84
11349;BME280;5729;43.570;27.826;2022-07-01T07:05:50;99006.84;;;27.57;95.98
11349;BME280;5729;43.570;27.826;2022-07-01T07:08:17;99000.00;;;27.67;94.60
11349;BME280;5729;43.570;27.826;2022-07-01T07:10:43;98999.34;;;27.72;93.65
11349;BME280;5729;43.570;27.826;2022-07-01T07:13:08;98998.03;;;27.82;94.17
11349;BME280;5729;43.570;27.826;2022-07-01T07:15:33;98999.47;;;27.92;89.87
11349;BME280;5729;43.570;27.826;2022-07-01T07:17:59;99000.06;;;27.96;88.43
11349;BME280;5729;43.570;27.826;2022-07-01T07:20:25;98995.84;;;28.01;81.68
11349;BME280;5729;43.570;27.826;2022-07-01T07:22:51;99007.59;;;28.10;85.96
11349;BME280;5729;43.570;27.826;2022-07-01T07:25:16;98990.72;;;28.08;82.51
11349;BME280;5729;43.570;27.826;2022-07-01T07:27:42;99006.41;;;28.26;78.92
11349;BME280;5729;43.570;27.826;2022-07-01T07:30:12;99012.31;;;28.34;92.02
11349;BME280;5729;43.570;27.826;2022-07-01T07:32:38;99009.84;;;28.36;95.35
11349;BME280;5729;43.570;27.826;2022-07-01T07:35:04;99009.53;;;28.34;96.61
11349;BME280;5729;43.570;27.826;2022-07-01T07:37:29;99014.91;;;28.37;93.18
11349;BME280;5729;43.570;27.826;2022-07-01T07:39:58;99008.03;;;28.33;94.75
11349;BME280;5729;43.570;27.826;2022-07-01T07:42:23;99019.09;;;28.47;94.77
11349;BME280;5729;43.570;27.826;2022-07-01T07:44:49;99028.66;;;28.46;96.19
11349;BME280;5729;43.570;27.826;2022-07-01T07:47:14;99022.81;;;28.59;98.70
11349;BME280;5729;43.570;27.826;2022-07-01T07:49:40;99022.44;;;28.66;93.04
11349;BME280;5729;43.570;27.826;2022-07-01T07:52:05;99021.16;;;28.67;86.25
11349;BME280;5729;43.570;27.826;2022-07-01T07:54:31;99028.44;;;28.79;84.40
11349;BME280;5729;43.570;27.826;2022-07-01T07:56:56;99019.94;;;28.83;84.28
11349;BME280;5729;43.570;27.826;2022-07-01T07:59:22;99014.97;;;28.87;80.03
11349;BME280;5729;43.570;27.826;2022-07-01T08:01:47;99014.25;;;28.92;78.29
11349;BME280;5729;43.570;27.826;2022-07-01T08:04:13;99019.53;;;28.90;83.71
11349;BME280;5729;43.570;27.826;2022-07-01T08:06:39;99015.94;;;29.04;80.80
11349;BME280;5729;43.570;27.826;2022-07-01T08:09:04;99016.03;;;29.45;92.87
11349;BME280;5729;43.570;27.826;2022-07-01T08:11:30;99020.34;;;30.44;76.40
11349;BME280;5729;43.570;27.826;2022-07-01T08:13:55;99013.59;;;31.95;72.95
11349;BME280;5729;43.570;27.826;2022-07-01T08:16:21;99015.38;;;33.84;64.45
11349;BME280;5729;43.570;27.826;2022-07-01T08:18:46;99013.88;;;35.70;50.87
11349;BME280;5729;43.570;27.826;2022-07-01T08:21:12;99016.28;;;36.94;45.20
11349;BME280;5729;43.570;27.826;2022-07-01T08:23:37;99007.56;;;38.39;54.33
11349;BME280;5729;43.570;27.826;2022-07-01T08:26:03;99014.91;;;39.12;43.45
11349;BME280;5729;43.570;27.826;2022-07-01T08:28:28;99009.19;;;39.69;37.76
11349;BME280;5729;43.570;27.826;2022-07-01T08:30:55;99010.75;;;39.85;36.18
11349;BME280;5729;43.570;27.826;2022-07-01T08:33:20;99013.09;;;40.17;38.01
11349;BME280;5729;43.570;27.826;2022-07-01T08:35:46;99009.31;;;40.14;34.16
11349;BME280;5729;43.570;27.826;2022-07-01T08:38:12;99012.91;;;40.98;36.56
11349;BME280;5729;43.570;27.826;2022-07-01T08:40:37;99018.81;;;41.48;30.86
11349;BME280;5729;43.570;27.826;2022-07-01T08:43:05;99009.56;;;41.48;31.91
11349;BME280;5729;43.570;27.826;2022-07-01T08:45:34;99017.53;;;41.82;30.21
11349;BME280;5729;43.570;27.826;2022-07-01T08:48:02;99016.69;;;42.79;34.77
11349;BME280;5729;43.570;27.826;2022-07-01T08:50:34;99021.75;;;43.39;33.60
11349;BME280;5729;43.570;27.826;2022-07-01T08:52:59;99014.38;;;44.25;34.25
11349;BME280;5729;43.570;27.826;2022-07-01T08:55:25;99019.19;;;44.88;27.25
11349;BME280;5729;43.570;27.826;2022-07-01T08:57:51;99019.84;;;45.34;26.60
11349;BME280;5729;43.570;27.826;2022-07-01T09:00:17;99021.59;;;45.78;30.27
11349;BME280;5729;43.570;27.826;2022-07-01T09:02:59;99016.19;;;45.91;27.17
11349;BME280;5729;43.570;27.826;2022-07-01T09:05:25;99018.72;;;46.38;25.81
11349;BME280;5729;43.570;27.826;2022-07-01T09:07:59;99028.09;;;46.81;27.77
11349;BME280;5729;43.570;27.826;2022-07-01T09:10:25;99021.38;;;47.40;26.54
11349;BME280;5729;43.570;27.826;2022-07-01T09:12:50;99022.13;;;47.52;28.36
11349;BME280;5729;43.570;27.826;2022-07-01T09:15:23;99024.00;;;48.04;26.11
11349;BME280;5729;43.570;27.826;2022-07-01T09:17:53;99029.88;;;48.53;23.75
11349;BME280;5729;43.570;27.826;2022-07-01T09:20:29;99025.13;;;48.69;27.19
11349;BME280;5729;43.570;27.826;2022-07-01T09:25:36;99022.66;;;49.74;22.33
11349;BME280;5729;43.570;27.826;2022-07-01T09:28:23;99018.91;;;49.97;24.40
11349;BME280;5729;43.570;27.826;2022-07-01T09:30:51;99019.84;;;49.88;21.76
11349;BME280;5729;43.570;27.826;2022-07-01T09:33:22;99018.91;;;49.97;23.86
11349;BME280;5729;43.570;27.826;2022-07-01T09:35:49;99011.34;;;49.90;22.45
11349;BME280;5729;43.570;27.826;2022-07-01T09:38:18;99023.25;;;49.98;22.79
11349;BME280;5729;43.570;27.826;2022-07-01T09:43:21;99012.00;;;50.02;21.18
11349;BME280;5729;43.570;27.826;2022-07-01T09:45:59;99014.81;;;49.75;24.99
11349;BME280;5729;43.570;27.826;2022-07-01T09:51:05;99013.19;;;49.97;22.91
11349;BME280;5729;43.570;27.826;2022-07-01T09:53:31;99009.31;;;50.32;22.23
11349;BME280;5729;43.570;27.826;2022-07-01T09:55:57;98996.25;;;50.56;25.12
11349;BME280;5729;43.570;27.826;2022-07-01T09:58:23;99000.78;;;50.61;21.86
11349;BME280;5729;43.570;27.826;2022-07-01T10:00:48;99001.31;;;50.58;21.70
11349;BME280;5729;43.570;27.826;2022-07-01T10:03:17;98998.41;;;50.99;22.31
11349;BME280;5729;43.570;27.826;2022-07-01T10:08:56;99003.88;;;50.79;21.81
11349;BME280;5729;43.570;27.826;2022-07-01T10:11:36;98997.34;;;50.92;22.28
11349;BME280;5729;43.570;27.826;2022-07-01T10:14:08;98997.31;;;50.22;20.46
11349;BME280;5729;43.570;27.826;2022-07-01T10:16:35;99010.63;;;49.39;21.50
11349;BME280;5729;43.570;27.826;2022-07-01T10:19:29;99001.75;;;48.72;23.00
11349;BME280;5729;43.570;27.826;2022-07-01T10:21:59;98998.00;;;48.70;22.86
11349;BME280;5729;43.570;27.826;2022-07-01T10:24:26;98999.88;;;48.65;23.40
11349;BME280;5729;43.570;27.826;2022-07-01T10:26:52;99002.53;;;48.50;27.63
11349;BME280;5729;43.570;27.826;2022-07-01T10:29:34;98991.00;;;47.68;25.96
11349;BME280;5729;43.570;27.826;2022-07-01T10:32:25;98988.13;;;45.88;24.93
11349;BME280;5729;43.570;27.826;2022-07-01T10:35:03;98992.81;;;44.68;31.85
11349;BME280;5729;43.570;27.826;2022-07-01T10:37:30;98991.56;;;43.78;32.89
11349;BME280;5729;43.570;27.826;2022-07-01T10:40:00;98995.97;;;43.72;29.42
11349;BME280;5729;43.570;27.826;2022-07-01T10:45:04;98983.19;;;42.18;32.26
11349;BME280;5729;43.570;27.826;2022-07-01T10:47:30;98985.63;;;40.55;31.65
11349;BME280;5729;43.570;27.826;2022-07-01T10:50:02;98976.56;;;40.19;33.31
11349;BME280;5729;43.570;27.826;2022-07-01T10:52:28;98989.88;;;39.88;33.17
11349;BME280;5729;43.570;27.826;2022-07-01T10:54:56;98983.03;;;39.25;37.58
11349;BME280;5729;43.570;27.826;2022-07-01T11:02:33;98980.56;;;36.17;53.86
11349;BME280;5729;43.570;27.826;2022-07-01T11:05:07;98972.13;;;35.48;62.87
11349;BME280;5729;43.570;27.826;2022-07-01T11:07:36;98973.44;;;34.79;70.51
11349;BME280;5729;43.570;27.826;2022-07-01T11:10:06;98982.38;;;34.12;72.77
11349;BME280;5729;43.570;27.826;2022-07-01T11:12:32;98969.91;;;33.78;76.66
11349;BME280;5729;43.570;27.826;2022-07-01T11:14:59;98975.59;;;33.61;76.94
11349;BME280;5729;43.570;27.826;2022-07-01T11:17:27;98974.94;;;34.26;85.66
11349;BME280;5729;43.570;27.826;2022-07-01T11:19:56;98965.47;;;35.32;80.10
11349;BME280;5729;43.570;27.826;2022-07-01T11:22:25;98965.03;;;35.84;66.38
11349;BME280;5729;43.570;27.826;2022-07-01T11:24:59;98959.25;;;36.72;60.18
11349;BME280;5729;43.570;27.826;2022-07-01T11:27:25;98956.63;;;36.61;63.74
11349;BME280;5729;43.570;27.826;2022-07-01T11:29:56;98958.53;;;36.08;59.95
11349;BME280;5729;43.570;27.826;2022-07-01T11:34:51;98966.94;;;35.14;67.44
11349;BME280;5729;43.570;27.826;2022-07-01T11:37:17;98969.13;;;34.78;67.58
11349;BME280;5729;43.570;27.826;2022-07-01T11:40:09;98979.75;;;34.55;73.46
11349;BME280;5729;43.570;27.826;2022-07-01T11:42:36;98982.28;;;34.23;71.19
11349;BME280;5729;43.570;27.826;2022-07-01T11:45:02;98986.41;;;33.81;75.31
11349;BME280;5729;43.570;27.826;2022-07-01T11:47:28;98985.56;;;33.45;95.39
11349;BME280;5729;43.570;27.826;2022-07-01T11:49:54;98985.19;;;33.02;90.46
11349;BME280;5729;43.570;27.826;2022-07-01T11:52:21;98985.00;;;32.84;100.00
11349;BME280;5729;43.570;27.826;2022-07-01T11:54:52;98992.09;;;32.57;97.62
11349;BME280;5729;43.570;27.826;2022-07-01T11:57:21;98978.69;;;32.22;96.25
11349;BME280;5729;43.570;27.826;2022-07-01T11:59:52;98995.91;;;32.20;100.00
11349;BME280;5729;43.570;27.826;2022-07-01T12:02:19;98995.88;;;32.03;100.00
11349;BME280;5729;43.570;27.826;2022-07-01T12:04:47;98995.09;;;31.81;100.00
11349;BME280;5729;43.570;27.826;2022-07-01T12:07:14;98983.31;;;31.54;100.00
11349;BME280;5729;43.570;27.826;2022-07-01T12:09:40;98958.66;;;31.25;100.00
11349;BME280;5729;43.570;27.826;2022-07-01T12:12:07;98973.81;;;31.13;100.00
11349;BME280;5729;43.570;27.826;2022-07-01T12:14:34;98969.38;;;30.95;100.00
11349;BME280;5729;43.570;27.826;2022-07-01T12:17:03;98957.59;;;31.17;100.00
11349;BME280;5729;43.570;27.826;2022-07-01T12:19:40;98968.47;;;31.85;100.00
11349;BME280;5729;43.570;27.826;2022-07-01T12:22:13;98979.16;;;32.65;100.00
11349;BME280;5729;43.570;27.826;2022-07-01T12:24:41;98970.59;;;33.43;100.00
11349;BME280;5729;43.570;27.826;2022-07-01T12:27:08;98970.16;;;34.15;100.00
11349;BME280;5729;43.570;27.826;2022-07-01T12:32:13;98956.28;;;34.88;80.02
11349;BME280;5729;43.570;27.826;2022-07-01T12:37:16;98955.25;;;35.53;73.40
11349;BME280;5729;43.570;27.826;2022-07-01T12:39:53;98962.59;;;35.56;70.60
11349;BME280;5729;43.570;27.826;2022-07-01T12:44:45;98969.41;;;35.61;70.38
11349;BME280;5729;43.570;27.826;2022-07-01T12:47:33;98966.69;;;35.93;89.80
11349;BME280;5729;43.570;27.826;2022-07-01T12:50:15;98964.56;;;36.31;64.33
11349;BME280;5729;43.570;27.826;2022-07-01T12:52:44;98958.50;;;36.72;83.04
11349;BME280;5729;43.570;27.826;2022-07-01T12:55:21;98962.47;;;37.03;62.02
11349;BME280;5729;43.570;27.826;2022-07-01T12:57:51;98955.03;;;37.05;60.73
11349;BME280;5729;43.570;27.826;2022-07-01T13:00:19;98962.69;;;36.92;60.06
11349;BME280;5729;43.570;27.826;2022-07-01T13:02:45;98962.50;;;36.77;60.66
11349;BME280;5729;43.570;27.826;2022-07-01T13:05:10;98954.50;;;36.81;59.53
11349;BME280;5729;43.570;27.826;2022-07-01T13:07:36;98933.28;;;36.53;59.51
11349;BME280;5729;43.570;27.826;2022-07-01T13:10:03;98955.91;;;36.74;65.26
11349;BME280;5729;43.570;27.826;2022-07-01T13:12:30;98958.28;;;36.70;60.13
11349;BME280;5729;43.570;27.826;2022-07-01T13:14:55;98958.56;;;36.66;59.53
11349;BME280;5729;43.570;27.826;2022-07-01T13:17:23;98956.13;;;36.76;59.13
11349;BME280;5729;43.570;27.826;2022-07-01T13:19:49;98954.63;;;36.75;60.49
11349;BME280;5729;43.570;27.826;2022-07-01T13:22:14;98947.34;;;36.66;59.05
11349;BME280;5729;43.570;27.826;2022-07-01T13:24:40;98952.84;;;36.59;59.30